Portada
METAR-TAF:

METAR-TAF

Aeroports :

Kasane, Botswana

latitud: 17-49S, longitud: 025-09E, altitud: 968 m

Observació

L'informe es va fer fa 6 hores i 31 minuts, a les 18:00 UTC
Vent 5 kt del Sud/Sud-Est
Temperatura 23°C
Humitat 65%
Pressió 1018 hPa
Visibilitat 10 km o més
sense núvols per sota de 1500 mi sense presència de cumulonimbus.

METAR: FBKE 031800Z 15005KT CAVOK 23/16 Q1018

Hora: 02:31 (00:31 UTC)

Pronòstic

L'informe es va fer fa 12 hores i 31 minuts, a les 12:00 UTC
Pronòstic vàlid del 03 a les 15 UTC al 03 a les 24 UTC
Vent 7 kt del Est/Nord-Est
Visibilitat 10 km o més
sense núvols per sota de 1500 mi sense presència de cumulonimbus.

TAF: FBKE 031200Z 0315/0324 07007KT CAVOK

Observacions i pronòstics meteorològics de més de 4000 aeroports (METAR i TAF).

Les estacions disponibles són els punts grocs i vermells al mapa.

Posi el ratolí al punt desitjat per veure el nom de l'estació.

Feu clic per veure les observacions i els pronòstics meteorològics.

Per canviar el mapa: feu clic els botons verds amb una creu de color negre per apropar; al botó verd amb un guió per allunyar la imatge; o en les fletxes verdes per a mapes adjacents.


METAR-TAF: